Time;durP1;ratioP1;P1;durP2;ratioP2;P2;SDS_P1;SDS_P2;PMS_P1;PMS_P2;Temp;Humidity;BMP_temperature;BMP_pressure;BME280_temperature;BME280_humidity;BME280_pressure;Samples;Min_cycle;Max_cycle;Signal;HPM_P1;HPM_P2
2022/09/18 00:00:12;;;;;;;7.28;2.45;;;;;;;;;;4957499;28;20037;-80
2022/09/18 00:02:58;;;;;;;6.53;1.70;;;;;;;;;;4993328;28;20447;-81
2022/09/18 00:05:44;;;;;;;6.43;1.67;;;;;;;;;;5017225;28;20033;-81
2022/09/18 00:08:29;;;;;;;3.10;1.40;;;;;;;;;;5029073;28;20387;-80
2022/09/18 00:11:15;;;;;;;4.57;1.30;;;;;;;;;;5022711;28;20104;-79
2022/09/18 00:14:00;;;;;;;3.22;1.55;;;;;;;;;;5025396;28;20029;-80
2022/09/18 00:16:46;;;;;;;4.60;1.50;;;;;;;;;;5026999;28;20422;-69
2022/09/18 00:19:32;;;;;;;6.00;1.42;;;;;;;;;;5018953;28;20117;-70
2022/09/18 00:22:17;;;;;;;4.03;1.20;;;;;;;;;;5020757;28;20057;-71
2022/09/18 00:25:03;;;;;;;4.30;1.30;;;;;;;;;;5014099;28;20580;-70
2022/09/18 00:27:49;;;;;;;3.70;1.30;;;;;;;;;;5024786;28;20425;-71
2022/09/18 00:30:34;;;;;;;6.40;1.45;;;;;;;;;;5024594;28;20067;-74
2022/09/18 00:33:20;;;;;;;3.50;1.85;;;;;;;;;;5018050;28;20022;-74
2022/09/18 00:36:06;;;;;;;4.80;1.55;;;;;;;;;;5012156;28;20041;-69
2022/09/18 00:38:52;;;;;;;8.27;1.55;;;;;;;;;;5023868;28;20030;-71
2022/09/18 00:41:39;;;;;;;2.88;1.40;;;;;;;;;;5022794;28;20041;-70
2022/09/18 00:44:29;;;;;;;8.00;1.35;;;;;;;;;;5024213;28;20101;-70
2022/09/18 00:47:19;;;;;;;4.05;1.27;;;;;;;;;;5026775;28;20029;-70
2022/09/18 00:50:08;;;;;;;3.83;1.15;;;;;;;;;;5024721;28;20040;-74
2022/09/18 00:52:56;;;;;;;6.78;1.95;;;;;;;;;;5019741;28;20100;-72
2022/09/18 00:55:42;;;;;;;3.13;1.20;;;;;;;;;;5015406;28;20029;-73
2022/09/18 00:58:27;;;;;;;3.10;1.40;;;;;;;;;;5030852;28;20099;-72
2022/09/18 01:01:13;;;;;;;5.72;1.60;;;;;;;;;;5029298;28;20026;-73
2022/09/18 01:04:02;;;;;;;4.47;1.48;;;;;;;;;;5023751;28;20115;-74
2022/09/18 01:06:51;;;;;;;4.00;1.30;;;;;;;;;;5027845;28;20029;-73
2022/09/18 01:09:41;;;;;;;3.25;1.30;;;;;;;;;;5022330;28;20104;-70
2022/09/18 01:12:27;;;;;;;;;;;;;;;;;;5019638;28;20026;-78
2022/09/18 01:15:18;;;;;;;4.90;1.60;;;;;;;;;;5018769;28;19909;-79
2022/09/18 01:18:06;;;;;;;2.08;1.25;;;;;;;;;;5025281;28;20073;-79
2022/09/18 01:21:01;;;;;;;4.28;1.25;;;;;;;;;;5003267;28;20022;-78
2022/09/18 01:23:58;;;;;;;4.72;1.50;;;;;;;;;;5025836;28;20418;-78
2022/09/18 01:27:02;;;;;;;9.98;1.75;;;;;;;;;;5006879;28;20032;-71
2022/09/18 01:29:58;;;;;;;4.50;1.73;;;;;;;;;;5024267;28;20030;-74
2022/09/18 01:32:52;;;;;;;12.02;1.60;;;;;;;;;;5030030;28;20112;-74
2022/09/18 01:35:51;;;;;;;4.82;1.77;;;;;;;;;;5021758;28;20492;-74
2022/09/18 01:38:40;;;;;;;5.72;1.70;;;;;;;;;;5008487;28;20480;-74
2022/09/18 01:41:27;;;;;;;4.53;1.25;;;;;;;;;;5032053;28;20112;-74
2022/09/18 01:44:15;;;;;;;3.90;1.45;;;;;;;;;;5014467;28;20036;-73
2022/09/18 01:47:03;;;;;;;2.88;1.70;;;;;;;;;;5018871;28;20079;-71
2022/09/18 01:49:49;;;;;;;4.88;1.23;;;;;;;;;;5027461;28;20111;-70
2022/09/18 01:52:38;;;;;;;6.45;1.92;;;;;;;;;;5026479;28;20037;-69
2022/09/18 01:55:26;;;;;;;5.53;2.30;;;;;;;;;;5032560;28;20112;-69
2022/09/18 01:58:16;;;;;;;6.50;1.42;;;;;;;;;;5021106;28;20081;-70
2022/09/18 02:01:04;;;;;;;6.18;1.65;;;;;;;;;;5030156;28;20026;-69
2022/09/18 02:03:52;;;;;;;8.10;1.67;;;;;;;;;;5026922;28;20505;-75
2022/09/18 02:06:40;;;;;;;3.10;1.45;;;;;;;;;;5032632;28;20037;-73
2022/09/18 02:09:27;;;;;;;6.40;1.60;;;;;;;;;;5027293;28;20029;-73
2022/09/18 02:12:15;;;;;;;4.30;1.60;;;;;;;;;;5030452;28;20488;-74
2022/09/18 02:15:04;;;;;;;3.42;1.30;;;;;;;;;;5018310;28;20018;-72
2022/09/18 02:17:59;;;;;;;2.83;1.60;;;;;;;;;;5023197;28;20029;-73
2022/09/18 02:20:45;;;;;;;2.38;1.33;;;;;;;;;;5026909;28;20018;-73
2022/09/18 02:23:32;;;;;;;4.40;2.03;;;;;;;;;;5025323;28;20038;-75
2022/09/18 02:26:18;;;;;;;5.80;1.55;;;;;;;;;;5027779;28;20053;-79
2022/09/18 02:29:05;;;;;;;4.28;1.20;;;;;;;;;;5011181;28;20041;-79
2022/09/18 02:31:50;;;;;;;9.20;1.70;;;;;;;;;;5030819;28;20068;-79
2022/09/18 02:34:36;;;;;;;2.83;1.40;;;;;;;;;;5017846;28;20021;-79
2022/09/18 02:37:41;;;;;;;4.07;1.50;;;;;;;;;;5025715;28;20038;-80
2022/09/18 02:40:45;;;;;;;4.63;1.92;;;;;;;;;;5030927;28;20393;-78
2022/09/18 02:43:44;;;;;;;4.47;1.15;;;;;;;;;;5013357;28;20117;-72
2022/09/18 02:46:36;;;;;;;3.67;1.35;;;;;;;;;;5028343;28;20025;-72
2022/09/18 02:49:24;;;;;;;4.53;1.40;;;;;;;;;;5020464;28;20095;-71
2022/09/18 02:52:12;;;;;;;3.33;1.95;;;;;;;;;;5017912;28;20044;-72
2022/09/18 02:55:09;;;;;;;4.35;1.13;;;;;;;;;;5025800;28;20449;-71
2022/09/18 02:57:57;;;;;;;2.88;1.40;;;;;;;;;;5015317;28;20493;-74
2022/09/18 03:00:44;;;;;;;5.88;1.27;;;;;;;;;;5002298;28;20113;-74
2022/09/18 03:03:31;;;;;;;4.30;1.23;;;;;;;;;;5021401;28;20068;-70
2022/09/18 03:06:17;;;;;;;6.03;1.48;;;;;;;;;;5029043;28;20120;-70
2022/09/18 03:09:03;;;;;;;7.13;1.48;;;;;;;;;;5012792;28;20026;-69
2022/09/18 03:11:52;;;;;;;3.50;1.38;;;;;;;;;;5016008;28;20112;-70
2022/09/18 03:14:38;;;;;;;;;;;;;;;;;;5024120;28;20507;-70
2022/09/18 03:17:23;;;;;;;6.82;1.58;;;;;;;;;;5028590;28;19921;-75
2022/09/18 03:20:09;;;;;;;5.32;1.40;;;;;;;;;;5026483;28;20017;-74
2022/09/18 03:22:54;;;;;;;2.65;0.95;;;;;;;;;;5019208;28;20033;-74
2022/09/18 03:25:40;;;;;;;4.00;1.33;;;;;;;;;;5024239;28;20021;-74
2022/09/18 03:28:25;;;;;;;3.78;1.10;;;;;;;;;;5031345;28;20491;-75
2022/09/18 03:31:11;;;;;;;7.80;1.42;;;;;;;;;;5025654;28;20021;-73
2022/09/18 03:33:57;;;;;;;2.72;1.08;;;;;;;;;;5018753;28;20017;-75
2022/09/18 03:36:42;;;;;;;4.90;1.33;;;;;;;;;;5005370;28;20033;-74
2022/09/18 03:39:28;;;;;;;3.22;1.05;;;;;;;;;;5019431;28;20033;-75
2022/09/18 03:42:13;;;;;;;2.55;0.90;;;;;;;;;;5016180;28;20079;-74
2022/09/18 03:44:59;;;;;;;3.25;1.20;;;;;;;;;;5018753;28;20037;-75
2022/09/18 03:47:45;;;;;;;3.63;1.15;;;;;;;;;;5026311;28;20465;-75
2022/09/18 03:50:31;;;;;;;2.75;1.40;;;;;;;;;;5022981;28;20493;-74
2022/09/18 03:53:16;;;;;;;2.20;1.10;;;;;;;;;;5023244;28;20110;-74
2022/09/18 03:56:02;;;;;;;6.07;1.50;;;;;;;;;;5021723;28;20137;-76
2022/09/18 03:58:47;;;;;;;3.92;1.75;;;;;;;;;;5027973;28;20095;-73
2022/09/18 04:01:33;;;;;;;4.22;1.23;;;;;;;;;;5013878;28;20060;-74
2022/09/18 04:04:19;;;;;;;2.70;1.10;;;;;;;;;;5018630;28;20087;-74
2022/09/18 04:07:04;;;;;;;2.38;1.38;;;;;;;;;;5025203;28;20057;-73
2022/09/18 04:09:51;;;;;;;2.05;0.95;;;;;;;;;;5016256;28;20032;-74
2022/09/18 04:12:36;;;;;;;1.77;0.90;;;;;;;;;;5027921;28;20026;-74
2022/09/18 04:15:22;;;;;;;2.45;1.13;;;;;;;;;;5024594;28;20080;-71
2022/09/18 04:18:08;;;;;;;2.58;1.20;;;;;;;;;;5025555;28;20037;-71
2022/09/18 04:20:53;;;;;;;5.40;1.35;;;;;;;;;;5018329;28;20026;-71
2022/09/18 04:23:39;;;;;;;2.97;0.95;;;;;;;;;;5010982;28;20498;-72
2022/09/18 04:26:25;;;;;;;1.58;1.00;;;;;;;;;;5023589;28;20052;-71
2022/09/18 04:29:12;;;;;;;2.70;1.10;;;;;;;;;;5017676;28;20578;-72
2022/09/18 04:31:58;;;;;;;2.20;0.90;;;;;;;;;;5033267;28;20064;-72
2022/09/18 04:34:43;;;;;;;1.42;0.85;;;;;;;;;;5019218;28;20021;-73
2022/09/18 04:37:29;;;;;;;4.53;0.80;;;;;;;;;;5027463;28;20529;-74
2022/09/18 04:40:14;;;;;;;2.92;0.88;;;;;;;;;;5029249;28;20091;-74
2022/09/18 04:43:00;;;;;;;4.10;1.15;;;;;;;;;;5021162;28;20061;-74
2022/09/18 04:45:46;;;;;;;2.30;1.20;;;;;;;;;;5019699;28;20025;-75
2022/09/18 04:48:32;;;;;;;3.72;1.10;;;;;;;;;;5032233;28;20024;-79
2022/09/18 04:51:17;;;;;;;3.65;1.45;;;;;;;;;;5024081;28;20036;-71
2022/09/18 04:54:04;;;;;;;1.08;0.88;;;;;;;;;;5022356;28;20399;-78
2022/09/18 04:56:49;;;;;;;2.80;1.00;;;;;;;;;;5030913;28;20030;-79
2022/09/18 04:59:35;;;;;;;1.48;1.00;;;;;;;;;;5033629;28;20329;-79
2022/09/18 05:02:22;;;;;;;1.73;1.30;;;;;;;;;;5022238;28;20397;-80
2022/09/18 05:05:07;;;;;;;3.33;1.00;;;;;;;;;;5026989;28;20393;-79
2022/09/18 05:07:53;;;;;;;2.65;1.10;;;;;;;;;;5032280;28;20456;-75
2022/09/18 05:10:38;;;;;;;5.47;1.10;;;;;;;;;;5017821;28;20021;-70
2022/09/18 05:13:29;;;;;;;6.55;1.40;;;;;;;;;;5016919;28;20493;-71
2022/09/18 05:16:15;;;;;;;2.35;1.35;;;;;;;;;;5024737;28;20025;-70
2022/09/18 05:19:01;;;;;;;2.40;1.00;;;;;;;;;;5033426;28;20096;-70
2022/09/18 05:21:50;;;;;;;2.70;1.38;;;;;;;;;;5022778;28;20022;-70
2022/09/18 05:24:35;;;;;;;5.87;1.53;;;;;;;;;;5020041;28;20393;-70
2022/09/18 05:27:21;;;;;;;3.55;1.42;;;;;;;;;;5023422;28;20088;-78
2022/09/18 05:30:07;;;;;;;9.07;2.00;;;;;;;;;;5031897;28;20443;-73
2022/09/18 05:32:53;;;;;;;5.65;1.73;;;;;;;;;;5029473;28;20366;-75
2022/09/18 05:35:39;;;;;;;2.97;1.00;;;;;;;;;;5015869;28;20026;-73
2022/09/18 05:38:25;;;;;;;2.85;1.52;;;;;;;;;;5027559;28;20105;-74
2022/09/18 05:41:10;;;;;;;3.45;1.10;;;;;;;;;;5018258;28;20397;-74
2022/09/18 05:43:56;;;;;;;2.22;1.17;;;;;;;;;;5021659;28;20030;-74
2022/09/18 05:46:41;;;;;;;3.47;1.58;;;;;;;;;;5029228;28;20022;-74
2022/09/18 05:49:27;;;;;;;2.15;1.25;;;;;;;;;;5022584;28;20109;-74
2022/09/18 05:52:13;;;;;;;4.25;1.15;;;;;;;;;;5029179;28;20399;-73
2022/09/18 05:54:58;;;;;;;1.88;1.15;;;;;;;;;;5029508;28;20022;-74
2022/09/18 05:57:44;;;;;;;6.55;1.40;;;;;;;;;;5022728;28;20041;-74
2022/09/18 06:00:30;;;;;;;3.58;1.40;;;;;;;;;;5022753;28;20513;-74
2022/09/18 06:03:16;;;;;;;3.03;1.10;;;;;;;;;;5027388;28;20025;-78
2022/09/18 06:06:02;;;;;;;4.53;1.35;;;;;;;;;;5029068;28;20539;-74
2022/09/18 06:08:48;;;;;;;2.10;1.23;;;;;;;;;;5031399;28;20029;-74
2022/09/18 06:11:33;;;;;;;3.25;1.20;;;;;;;;;;5032835;28;20033;-74
2022/09/18 06:14:19;;;;;;;5.53;1.52;;;;;;;;;;5019215;28;20025;-74
2022/09/18 06:17:04;;;;;;;5.90;1.40;;;;;;;;;;5027657;28;20033;-74
2022/09/18 06:19:50;;;;;;;4.45;1.10;;;;;;;;;;5028519;28;20079;-73
2022/09/18 06:22:35;;;;;;;2.55;1.10;;;;;;;;;;5022506;28;20511;-71
2022/09/18 06:25:22;;;;;;;2.95;1.30;;;;;;;;;;5025296;28;20014;-73
2022/09/18 06:28:08;;;;;;;3.67;1.10;;;;;;;;;;5030142;28;20025;-73
2022/09/18 06:30:53;;;;;;;2.05;1.13;;;;;;;;;;5015197;28;20404;-73
2022/09/18 06:33:39;;;;;;;2.75;1.20;;;;;;;;;;5017920;28;20507;-73
2022/09/18 06:36:24;;;;;;;4.07;1.75;;;;;;;;;;5021745;28;20018;-74
2022/09/18 06:39:10;;;;;;;2.33;1.33;;;;;;;;;;5031840;28;20036;-79
2022/09/18 06:41:57;;;;;;;2.58;1.23;;;;;;;;;;5022014;28;20033;-75
2022/09/18 06:44:43;;;;;;;3.60;1.40;;;;;;;;;;5023691;28;20083;-71
2022/09/18 06:47:29;;;;;;;3.22;1.30;;;;;;;;;;5025374;28;20018;-71
2022/09/18 06:50:14;;;;;;;2.72;1.25;;;;;;;;;;5011366;28;20373;-69
2022/09/18 06:53:01;;;;;;;1.80;1.38;;;;;;;;;;5024655;28;20017;-71
2022/09/18 06:55:47;;;;;;;3.00;1.60;;;;;;;;;;5018907;28;20026;-71
2022/09/18 06:58:33;;;;;;;3.60;1.23;;;;;;;;;;5020751;28;20030;-78
2022/09/18 07:01:18;;;;;;;3.50;1.33;;;;;;;;;;5027657;28;20079;-74
2022/09/18 07:04:04;;;;;;;3.60;1.38;;;;;;;;;;5017336;28;20075;-72
2022/09/18 07:06:49;;;;;;;3.00;1.50;;;;;;;;;;5030463;28;20032;-73
2022/09/18 07:09:35;;;;;;;3.05;1.33;;;;;;;;;;5022255;28;20476;-73
2022/09/18 07:12:21;;;;;;;4.38;1.35;;;;;;;;;;5024548;28;20025;-72
2022/09/18 07:15:06;;;;;;;4.82;1.60;;;;;;;;;;5022389;28;20032;-73
2022/09/18 07:17:56;;;;;;;2.47;1.10;;;;;;;;;;5020776;28;20060;-79
2022/09/18 07:20:41;;;;;;;4.45;1.58;;;;;;;;;;5028134;28;20017;-69
2022/09/18 07:23:29;;;;;;;5.15;1.23;;;;;;;;;;5027381;28;20488;-70
2022/09/18 07:26:15;;;;;;;3.20;1.30;;;;;;;;;;5024523;28;20022;-71
2022/09/18 07:29:00;;;;;;;5.72;1.67;;;;;;;;;;5029244;28;20432;-69
2022/09/18 07:31:46;;;;;;;5.63;1.30;;;;;;;;;;5015835;28;20026;-69
2022/09/18 07:34:32;;;;;;;4.57;1.33;;;;;;;;;;5026795;28;20022;-74
2022/09/18 07:37:17;;;;;;;4.97;1.63;;;;;;;;;;5024566;28;20439;-70
2022/09/18 07:40:03;;;;;;;2.83;1.60;;;;;;;;;;5020970;28;20029;-80
2022/09/18 07:42:49;;;;;;;3.97;1.40;;;;;;;;;;5019020;28;20112;-81
2022/09/18 07:45:35;;;;;;;4.38;1.45;;;;;;;;;;5017345;28;20026;-81
2022/09/18 07:48:22;;;;;;;2.85;1.25;;;;;;;;;;5030959;28;20337;-82
2022/09/18 07:51:08;;;;;;;6.32;1.30;;;;;;;;;;5014292;28;20036;-81
2022/09/18 07:53:53;;;;;;;3.85;1.40;;;;;;;;;;5026611;28;20506;-72
2022/09/18 07:56:39;;;;;;;3.90;1.35;;;;;;;;;;5021540;28;20037;-71
2022/09/18 07:59:24;;;;;;;2.38;1.30;;;;;;;;;;5027986;28;20120;-70
2022/09/18 08:02:10;;;;;;;3.20;1.50;;;;;;;;;;5029165;28;20060;-71
2022/09/18 08:04:56;;;;;;;3.22;1.27;;;;;;;;;;5026742;28;20018;-71
2022/09/18 08:07:43;;;;;;;3.05;1.42;;;;;;;;;;5013485;28;20065;-73
2022/09/18 08:10:29;;;;;;;4.65;1.23;;;;;;;;;;5020123;28;20041;-73
2022/09/18 08:13:14;;;;;;;3.28;1.38;;;;;;;;;;5026865;28;20041;-72
2022/09/18 08:16:01;;;;;;;3.35;1.50;;;;;;;;;;5007552;28;20018;-80
2022/09/18 08:18:47;;;;;;;2.33;1.30;;;;;;;;;;5026877;28;20077;-80
2022/09/18 08:21:33;;;;;;;4.50;1.63;;;;;;;;;;5022982;28;20021;-80
2022/09/18 08:24:18;;;;;;;4.13;1.98;;;;;;;;;;5029793;28;20064;-82
2022/09/18 08:27:04;;;;;;;5.47;1.60;;;;;;;;;;5030131;28;20036;-83
2022/09/18 08:29:50;;;;;;;2.10;1.08;;;;;;;;;;5011368;28;20025;-74
2022/09/18 08:32:36;;;;;;;4.18;1.65;;;;;;;;;;5022556;28;20142;-70
2022/09/18 08:35:21;;;;;;;3.40;1.35;;;;;;;;;;4999640;28;20468;-71
2022/09/18 08:38:10;;;;;;;3.45;1.17;;;;;;;;;;5010917;28;20041;-72
2022/09/18 08:40:55;;;;;;;4.00;1.33;;;;;;;;;;5015253;28;20029;-73
2022/09/18 08:44:00;;;;;;;5.35;1.50;;;;;;;;;;5020069;28;20065;-71
2022/09/18 08:46:49;;;;;;;2.58;1.17;;;;;;;;;;5019810;28;20032;-73
2022/09/18 08:49:41;;;;;;;3.63;1.20;;;;;;;;;;5023644;28;20052;-78
2022/09/18 08:52:30;;;;;;;2.20;1.20;;;;;;;;;;5019096;28;20277;-73
2022/09/18 08:55:26;;;;;;;3.45;1.33;;;;;;;;;;5019383;28;20072;-72
2022/09/18 08:58:14;;;;;;;3.72;1.48;;;;;;;;;;5013405;28;20037;-72
2022/09/18 09:01:11;;;;;;;4.65;1.45;;;;;;;;;;5029640;28;20033;-72
2022/09/18 09:04:03;;;;;;;1.98;1.40;;;;;;;;;;5026916;28;20480;-71
2022/09/18 09:06:49;;;;;;;2.83;1.58;;;;;;;;;;5007585;28;20037;-77
2022/09/18 09:09:53;;;;;;;4.07;1.23;;;;;;;;;;5022473;28;20112;-73
2022/09/18 09:13:04;;;;;;;2.53;1.55;;;;;;;;;;5024978;28;20033;-75
2022/09/18 09:16:10;;;;;;;5.03;1.40;;;;;;;;;;5015351;28;20028;-74
2022/09/18 09:18:55;;;;;;;2.10;1.15;;;;;;;;;;5029403;28;20037;-74
2022/09/18 09:21:52;;;;;;;2.20;1.38;;;;;;;;;;5028541;28;20029;-74
2022/09/18 09:24:59;;;;;;;3.60;1.45;;;;;;;;;;5031494;28;20029;-72
2022/09/18 09:28:14;;;;;;;6.05;1.40;;;;;;;;;;5028224;28;20072;-75
2022/09/18 09:31:01;;;;;;;3.90;1.40;;;;;;;;;;5023680;28;20038;-74
2022/09/18 09:34:10;;;;;;;2.92;1.20;;;;;;;;;;5025913;28;20124;-74
2022/09/18 09:36:58;;;;;;;4.40;1.52;;;;;;;;;;5024837;28;20025;-75
2022/09/18 09:39:46;;;;;;;5.03;1.40;;;;;;;;;;5021273;28;20116;-75
2022/09/18 09:42:42;;;;;;;3.50;1.60;;;;;;;;;;5024288;28;20481;-73
2022/09/18 09:45:43;;;;;;;2.95;1.38;;;;;;;;;;5029266;28;20025;-74
2022/09/18 09:48:55;;;;;;;9.43;1.60;;;;;;;;;;5033088;28;20090;-73
2022/09/18 09:51:43;;;;;;;5.20;1.63;;;;;;;;;;5016429;28;20026;-72
2022/09/18 09:54:29;;;;;;;6.78;1.70;;;;;;;;;;5020633;28;20057;-72
2022/09/18 09:57:53;;;;;;;3.05;1.42;;;;;;;;;;5024776;28;20034;-72
2022/09/18 10:00:49;;;;;;;5.43;1.10;;;;;;;;;;4940947;29;20020;-72
2022/09/18 10:03:34;;;;;;;4.78;1.63;;;;;;;;;;4939703;29;20138;-75
2022/09/18 10:06:34;;;;;;;5.65;1.77;;;;;;;;;;4945362;29;20513;-77
2022/09/18 10:09:20;;;;;;;7.15;2.28;;;;;;;;;;4941865;29;20039;-76
2022/09/18 10:12:08;;;;;;;2.42;1.17;;;;;;;;;;4950139;29;20110;-75
2022/09/18 10:14:56;;;;;;;4.22;1.00;;;;;;;;;;4936861;29;20028;-75
2022/09/18 10:17:42;;;;;;;8.18;1.65;;;;;;;;;;4948240;28;20042;-76
2022/09/18 10:20:29;;;;;;;3.97;1.50;;;;;;;;;;4945567;29;20027;-81
2022/09/18 10:23:28;;;;;;;5.20;1.55;;;;;;;;;;4947055;29;20114;-70
2022/09/18 10:26:18;;;;;;;6.10;1.33;;;;;;;;;;4932747;29;20032;-70
2022/09/18 10:29:04;;;;;;;5.78;1.20;;;;;;;;;;4943101;29;20037;-69
2022/09/18 10:31:51;;;;;;;2.47;1.00;;;;;;;;;;5009888;28;20492;-68
2022/09/18 10:34:38;;;;;;;5.50;2.40;;;;;;;;;;5000413;28;20511;-67
2022/09/18 10:37:29;;;;;;;3.20;1.00;;;;;;;;;;5012918;28;20037;-68
2022/09/18 10:40:27;;;;;;;5.43;1.35;;;;;;;;;;5008712;28;20432;-79
2022/09/18 10:43:17;;;;;;;4.15;2.17;;;;;;;;;;5020390;28;20041;-80
2022/09/18 10:46:03;;;;;;;2.88;1.23;;;;;;;;;;5016840;28;20029;-78
2022/09/18 10:48:49;;;;;;;4.95;1.58;;;;;;;;;;5026817;28;20762;-76
2022/09/18 10:51:34;;;;;;;4.72;1.13;;;;;;;;;;5030255;28;20026;-76
2022/09/18 10:54:23;;;;;;;3.58;1.20;;;;;;;;;;5021426;28;20044;-76
2022/09/18 10:57:24;;;;;;;3.55;1.25;;;;;;;;;;5018588;28;20041;-80
2022/09/18 11:00:18;;;;;;;3.72;1.00;;;;;;;;;;5026975;28;20067;-77
2022/09/18 11:03:20;;;;;;;3.42;1.33;;;;;;;;;;5031107;28;20032;-76
2022/09/18 11:06:05;;;;;;;2.83;1.33;;;;;;;;;;5025785;28;20030;-77
2022/09/18 11:08:53;;;;;;;2.80;1.33;;;;;;;;;;5022837;28;20366;-76
2022/09/18 11:11:49;;;;;;;4.93;1.10;;;;;;;;;;5024029;28;20116;-76
2022/09/18 11:14:39;;;;;;;3.47;1.13;;;;;;;;;;5006571;28;20121;-75
2022/09/18 11:17:26;;;;;;;4.80;1.02;;;;;;;;;;5015284;28;21568;-68
2022/09/18 11:20:21;;;;;;;2.42;1.17;;;;;;;;;;5013047;28;20033;-81
2022/09/18 11:23:35;;;;;;;8.02;1.60;;;;;;;;;;5020066;28;20033;-80
2022/09/18 11:26:28;;;;;;;6.25;1.15;;;;;;;;;;5008351;28;20038;-79
2022/09/18 11:29:20;;;;;;;1.27;0.98;;;;;;;;;;5020596;28;20052;-80
2022/09/18 11:32:34;;;;;;;5.35;1.05;;;;;;;;;;5026860;28;20026;-79
2022/09/18 11:35:21;;;;;;;3.53;1.00;;;;;;;;;;5025727;28;20034;-74
2022/09/18 11:38:07;;;;;;;2.35;1.27;;;;;;;;;;5023288;28;20038;-69
2022/09/18 11:40:54;;;;;;;2.47;1.30;;;;;;;;;;5027927;28;20025;-69
2022/09/18 11:43:41;;;;;;;3.13;1.10;;;;;;;;;;5019568;28;20473;-69
2022/09/18 11:46:36;;;;;;;2.47;1.30;;;;;;;;;;5019543;28;20164;-69
2022/09/18 11:49:27;;;;;;;4.53;1.70;;;;;;;;;;5026268;28;20030;-70
2022/09/18 11:52:13;;;;;;;3.90;1.20;;;;;;;;;;5012147;28;20032;-74
2022/09/18 11:55:13;;;;;;;2.42;0.90;;;;;;;;;;5022143;28;20036;-69
2022/09/18 11:58:04;;;;;;;3.78;1.00;;;;;;;;;;5024539;28;20045;-74
2022/09/18 12:00:56;;;;;;;2.95;1.23;;;;;;;;;;5018513;28;20068;-74
2022/09/18 12:03:50;;;;;;;2.30;1.13;;;;;;;;;;5026274;28;20029;-74
2022/09/18 12:06:42;;;;;;;4.13;1.27;;;;;;;;;;5016713;28;20026;-74
2022/09/18 12:09:36;;;;;;;3.65;1.27;;;;;;;;;;5020407;28;20397;-74
2022/09/18 12:12:28;;;;;;;2.92;1.00;;;;;;;;;;4997258;28;20025;-72
2022/09/18 12:15:22;;;;;;;4.38;1.13;;;;;;;;;;5010609;28;20112;-79
2022/09/18 12:18:13;;;;;;;2.80;1.00;;;;;;;;;;5026598;28;20399;-78
2022/09/18 12:21:02;;;;;;;4.57;1.38;;;;;;;;;;5012568;28;20022;-78
2022/09/18 12:23:48;;;;;;;5.17;1.30;;;;;;;;;;5027601;28;20503;-79
2022/09/18 12:26:54;;;;;;;3.45;1.20;;;;;;;;;;5020328;28;20524;-80
2022/09/18 12:30:09;;;;;;;1.00;0.80;;;;;;;;;;5019506;28;20029;-78
2022/09/18 12:32:55;;;;;;;1.85;0.80;;;;;;;;;;5010077;28;20038;-69
2022/09/18 12:35:43;;;;;;;1.92;1.08;;;;;;;;;;5031140;28;20044;-67
2022/09/18 12:38:35;;;;;;;1.77;1.02;;;;;;;;;;5018437;28;20519;-68
2022/09/18 12:41:39;;;;;;;3.85;1.25;;;;;;;;;;5017048;28;20468;-69
2022/09/18 12:44:31;;;;;;;2.67;1.00;;;;;;;;;;5020058;28;20357;-69
2022/09/18 12:47:22;;;;;;;3.80;1.10;;;;;;;;;;5012476;28;20377;-74
2022/09/18 12:50:11;;;;;;;3.33;1.13;;;;;;;;;;5029803;28;20112;-77
2022/09/18 12:52:56;;;;;;;2.65;1.10;;;;;;;;;;5003968;28;20116;-69
2022/09/18 12:56:00;;;;;;;3.83;1.23;;;;;;;;;;5022895;28;20409;-69
2022/09/18 12:59:09;;;;;;;4.53;0.95;;;;;;;;;;5032082;28;20102;-69
2022/09/18 13:01:57;;;;;;;6.15;1.10;;;;;;;;;;5019889;28;20017;-71
2022/09/18 13:04:51;;;;;;;2.63;1.00;;;;;;;;;;5019813;28;20025;-69
2022/09/18 13:07:44;;;;;;;1.52;0.80;;;;;;;;;;5023381;28;20033;-70
2022/09/18 13:10:33;;;;;;;3.25;0.98;;;;;;;;;;5029845;28;20469;-78
2022/09/18 13:13:32;;;;;;;1.00;0.90;;;;;;;;;;5022697;28;20132;-78
2022/09/18 13:16:27;;;;;;;1.63;1.10;;;;;;;;;;5033387;28;20168;-78
2022/09/18 13:19:25;;;;;;;1.80;1.00;;;;;;;;;;5028610;28;20096;-78
2022/09/18 13:22:13;;;;;;;3.95;1.05;;;;;;;;;;5029736;28;20025;-77
2022/09/18 13:24:59;;;;;;;4.60;1.13;;;;;;;;;;5017438;28;20026;-76
2022/09/18 13:27:45;;;;;;;4.32;1.27;;;;;;;;;;5028185;28;20388;-69
2022/09/18 13:30:30;;;;;;;2.20;1.15;;;;;;;;;;5032394;28;20416;-70
2022/09/18 13:33:23;;;;;;;3.00;1.00;;;;;;;;;;5023172;28;20052;-70
2022/09/18 13:36:09;;;;;;;4.10;1.67;;;;;;;;;;5019948;28;20439;-70
2022/09/18 13:38:58;;;;;;;2.70;1.10;;;;;;;;;;5020320;28;20034;-70
2022/09/18 13:41:44;;;;;;;3.65;1.30;;;;;;;;;;5024884;28;20029;-70
2022/09/18 13:44:32;;;;;;;2.95;1.10;;;;;;;;;;5030999;28;20025;-76
2022/09/18 13:47:18;;;;;;;1.63;1.13;;;;;;;;;;5021195;28;20048;-69
2022/09/18 13:50:06;;;;;;;2.22;1.05;;;;;;;;;;5023967;28;20542;-69
2022/09/18 13:52:54;;;;;;;2.58;1.10;;;;;;;;;;5023195;28;20024;-68
2022/09/18 13:55:49;;;;;;;3.03;1.40;;;;;;;;;;5022718;28;20083;-69
2022/09/18 13:58:36;;;;;;;2.63;0.98;;;;;;;;;;5016139;28;20065;-70
2022/09/18 14:01:40;;;;;;;5.20;1.00;;;;;;;;;;5029981;28;20153;-72
2022/09/18 14:04:38;;;;;;;4.25;1.70;;;;;;;;;;5019835;28;20417;-74
2022/09/18 14:07:23;;;;;;;4.40;1.75;;;;;;;;;;5019136;28;20152;-74
2022/09/18 14:10:26;;;;;;;1.55;1.13;;;;;;;;;;5029963;28;20038;-75
2022/09/18 14:13:18;;;;;;;4.05;1.20;;;;;;;;;;5020383;28;20021;-74
2022/09/18 14:16:09;;;;;;;2.22;0.90;;;;;;;;;;5005652;28;20045;-75
2022/09/18 14:19:03;;;;;;;1.92;0.90;;;;;;;;;;5029562;28;20037;-74
2022/09/18 14:21:49;;;;;;;2.85;1.27;;;;;;;;;;5030979;28;20071;-71
2022/09/18 14:24:38;;;;;;;5.57;1.23;;;;;;;;;;5007725;28;20026;-71
2022/09/18 14:27:26;;;;;;;1.80;1.33;;;;;;;;;;5026730;28;20091;-71
2022/09/18 14:30:25;;;;;;;3.22;1.20;;;;;;;;;;5023952;28;20467;-71
2022/09/18 14:33:14;;;;;;;1.00;0.90;;;;;;;;;;5029358;28;20408;-71
2022/09/18 14:36:04;;;;;;;3.30;1.08;;;;;;;;;;5021669;28;20499;-71
2022/09/18 14:38:49;;;;;;;4.60;1.08;;;;;;;;;;5023908;28;20044;-73
2022/09/18 14:41:35;;;;;;;2.22;1.33;;;;;;;;;;5023840;28;20025;-74
2022/09/18 14:44:22;;;;;;;4.22;1.00;;;;;;;;;;5022817;28;20473;-74
2022/09/18 14:47:17;;;;;;;3.58;1.00;;;;;;;;;;5023458;28;20025;-73
2022/09/18 14:50:20;;;;;;;3.72;1.45;;;;;;;;;;5033304;28;20028;-74
2022/09/18 14:53:23;;;;;;;2.55;1.23;;;;;;;;;;5025518;28;20041;-74
2022/09/18 14:56:11;;;;;;;5.40;1.20;;;;;;;;;;5016459;28;20026;-70
2022/09/18 14:58:58;;;;;;;3.90;1.00;;;;;;;;;;5012516;28;20044;-76
2022/09/18 15:01:44;;;;;;;4.75;1.17;;;;;;;;;;5023286;28;20159;-69
2022/09/18 15:04:29;;;;;;;3.75;1.30;;;;;;;;;;5022422;28;20079;-69
2022/09/18 15:07:17;;;;;;;4.70;1.30;;;;;;;;;;5028254;28;20120;-69
2022/09/18 15:10:04;;;;;;;3.03;1.20;;;;;;;;;;5032097;28;20025;-69
2022/09/18 15:12:50;;;;;;;3.22;1.02;;;;;;;;;;5025425;28;20076;-69
2022/09/18 15:15:39;;;;;;;4.28;1.45;;;;;;;;;;5029335;28;20037;-74
2022/09/18 15:18:26;;;;;;;3.83;1.58;;;;;;;;;;5014585;28;20037;-74
2022/09/18 15:21:26;;;;;;;2.78;1.08;;;;;;;;;;5013434;28;20029;-74
2022/09/18 15:24:15;;;;;;;3.70;1.38;;;;;;;;;;5024462;28;20079;-74
2022/09/18 15:27:01;;;;;;;2.45;1.10;;;;;;;;;;5025172;28;20056;-74
2022/09/18 15:29:49;;;;;;;5.15;1.42;;;;;;;;;;5020282;28;20525;-74
2022/09/18 15:32:40;;;;;;;3.78;1.42;;;;;;;;;;5017760;28;20148;-75
2022/09/18 15:35:31;;;;;;;1.92;1.00;;;;;;;;;;5015842;28;20038;-72
2022/09/18 15:38:18;;;;;;;2.72;1.20;;;;;;;;;;5014591;28;20045;-69
2022/09/18 15:41:19;;;;;;;2.05;1.15;;;;;;;;;;5029841;28;20033;-70
2022/09/18 15:44:05;;;;;;;1.85;1.15;;;;;;;;;;5003875;28;20025;-69
2022/09/18 15:46:50;;;;;;;2.47;1.13;;;;;;;;;;5014125;28;20030;-70
2022/09/18 15:49:36;;;;;;;2.03;1.30;;;;;;;;;;5016733;28;20026;-69
2022/09/18 15:52:34;;;;;;;3.03;0.90;;;;;;;;;;5020681;28;20026;-71
2022/09/18 15:55:25;;;;;;;3.43;1.17;;;;;;;;;;5027172;28;20025;-71
2022/09/18 15:58:37;;;;;;;2.72;1.38;;;;;;;;;;5016577;28;20026;-72
2022/09/18 16:01:33;;;;;;;5.50;1.05;;;;;;;;;;5026873;28;20104;-72
2022/09/18 16:04:23;;;;;;;1.73;0.93;;;;;;;;;;5021984;28;20033;-71
2022/09/18 16:07:23;;;;;;;5.50;1.15;;;;;;;;;;5029090;28;20022;-70
2022/09/18 16:10:27;;;;;;;2.40;1.08;;;;;;;;;;5016779;28;20125;-74
2022/09/18 16:13:13;;;;;;;3.95;1.25;;;;;;;;;;5028831;28;20500;-72
2022/09/18 16:16:13;;;;;;;2.20;1.30;;;;;;;;;;5017637;28;20029;-73
2022/09/18 16:19:09;;;;;;;2.60;1.27;;;;;;;;;;5025449;28;20059;-73
2022/09/18 16:21:54;;;;;;;2.97;1.55;;;;;;;;;;5013161;28;20577;-74
2022/09/18 16:24:40;;;;;;;3.00;1.20;;;;;;;;;;5030921;28;20026;-72
2022/09/18 16:27:25;;;;;;;2.33;1.02;;;;;;;;;;5030898;28;20028;-73
2022/09/18 16:30:11;;;;;;;4.05;1.10;;;;;;;;;;5036192;28;20025;-69
2022/09/18 16:33:01;;;;;;;5.95;1.35;;;;;;;;;;5012343;28;20104;-69
2022/09/18 16:35:53;;;;;;;3.25;1.90;;;;;;;;;;5029797;28;20032;-69
2022/09/18 16:38:39;;;;;;;3.55;2.00;;;;;;;;;;5031436;28;20493;-69
2022/09/18 16:41:24;;;;;;;2.55;1.70;;;;;;;;;;5008192;28;20018;-69
2022/09/18 16:44:11;;;;;;;2.97;1.67;;;;;;;;;;5025659;28;20045;-69
2022/09/18 16:47:02;;;;;;;1.95;1.15;;;;;;;;;;5021821;28;20029;-77
2022/09/18 16:49:48;;;;;;;4.00;1.13;;;;;;;;;;5029265;28;20028;-75
2022/09/18 16:52:33;;;;;;;3.22;1.10;;;;;;;;;;5030575;28;20113;-74
2022/09/18 16:55:19;;;;;;;3.53;1.77;;;;;;;;;;5032176;28;20128;-73